createdAt,value
2018-05-15T00:01:04.744Z,11.30
2018-05-15T00:03:32.245Z,11.30
2018-05-15T00:05:59.782Z,11.13
2018-05-15T00:08:27.288Z,10.83
2018-05-15T00:10:54.789Z,11.07
2018-05-15T00:13:22.470Z,11.30
2018-05-15T00:15:49.970Z,11.67
2018-05-15T00:18:18.224Z,11.03
2018-05-15T00:20:45.724Z,11.67
2018-05-15T00:23:13.981Z,11.10
2018-05-15T00:25:41.465Z,11.60
2018-05-15T00:28:08.977Z,12.03
2018-05-15T00:30:36.478Z,11.80
2018-05-15T00:33:04.780Z,11.67
2018-05-15T00:35:32.363Z,11.53
2018-05-15T00:37:59.857Z,11.87
2018-05-15T00:40:28.174Z,11.90
2018-05-15T00:42:55.689Z,12.00
2018-05-15T00:45:23.946Z,12.20
2018-05-15T00:47:51.511Z,12.37
2018-05-15T00:50:19.013Z,12.10
2018-05-15T00:52:46.545Z,12.03
2018-05-15T00:55:26.742Z,11.63
2018-05-15T00:57:54.225Z,12.03
2018-05-15T01:00:21.749Z,11.70
2018-05-15T01:02:49.285Z,12.07
2018-05-15T01:05:17.531Z,11.73
2018-05-15T01:07:45.019Z,11.40
2018-05-15T01:10:13.301Z,11.90
2018-05-15T01:12:41.557Z,12.50
2018-05-15T01:15:09.130Z,12.63
2018-05-15T01:17:36.727Z,12.37
2018-05-15T01:20:04.249Z,11.97
2018-05-15T01:22:32.502Z,13.00
2018-05-15T01:25:00.020Z,12.07
2018-05-15T01:27:27.526Z,12.40
2018-05-15T01:29:55.027Z,12.03
2018-05-15T01:32:22.571Z,12.30
2018-05-15T01:34:50.066Z,12.33
2018-05-15T01:37:17.566Z,12.63
2018-05-15T01:39:45.861Z,12.63
2018-05-15T01:42:13.374Z,12.93
2018-05-15T01:44:40.865Z,12.40
2018-05-15T01:47:09.225Z,11.57
2018-05-15T01:49:36.729Z,12.80
2018-05-15T01:52:04.225Z,12.63
2018-05-15T01:54:31.773Z,12.90
2018-05-15T01:56:59.266Z,12.90
2018-05-15T01:59:26.775Z,12.90
2018-05-15T02:01:54.386Z,12.97
2018-05-15T02:04:21.886Z,13.43
2018-05-15T02:06:49.388Z,13.87
2018-05-15T02:09:16.891Z,13.90
2018-05-15T02:11:45.149Z,14.03
2018-05-15T02:14:13.437Z,13.53
2018-05-15T02:16:41.713Z,14.17
2018-05-15T02:19:09.982Z,14.43
2018-05-15T02:21:37.485Z,13.80
2018-05-15T02:24:04.998Z,14.20
2018-05-15T02:26:32.485Z,14.40
2018-05-15T02:28:59.988Z,13.93
2018-05-15T02:31:27.499Z,14.87
2018-05-15T02:33:54.999Z,14.90
2018-05-15T02:36:22.481Z,14.80
2018-05-15T02:38:49.993Z,14.93
2018-05-15T02:41:17.489Z,15.00
2018-05-15T02:43:44.987Z,14.77
2018-05-15T02:46:12.502Z,14.33
2018-05-15T02:48:40.018Z,14.70
2018-05-15T02:51:07.510Z,14.47
2018-05-15T02:53:35.018Z,15.27
2018-05-15T02:56:03.269Z,15.67
2018-05-15T02:58:30.761Z,15.63
2018-05-15T03:00:58.286Z,15.30
2018-05-15T03:03:25.798Z,15.27
2018-05-15T03:05:53.290Z,15.23
2018-05-15T03:08:20.809Z,15.30
2018-05-15T03:10:48.388Z,15.10
2018-05-15T03:13:15.825Z,15.63
2018-05-15T03:15:43.360Z,15.27
2018-05-15T03:18:11.615Z,14.50
2018-05-15T03:20:39.106Z,15.33
2018-05-15T03:23:06.610Z,16.03
2018-05-15T03:25:34.125Z,15.30
2018-05-15T03:28:01.616Z,15.73
2018-05-15T03:30:29.127Z,15.70
2018-05-15T03:32:56.629Z,16.27
2018-05-15T03:35:24.120Z,15.37
2018-05-15T03:37:51.641Z,16.00
2018-05-15T03:40:19.137Z,15.43
2018-05-15T03:42:46.631Z,15.67
2018-05-15T03:45:14.193Z,15.73
2018-05-15T03:47:41.689Z,16.07
2018-05-15T03:50:09.209Z,15.57
2018-05-15T03:52:36.747Z,15.33
2018-05-15T03:55:05.086Z,14.70
2018-05-15T03:57:32.524Z,15.77
2018-05-15T04:00:00.041Z,15.23
2018-05-15T04:02:40.087Z,15.40
2018-05-15T04:05:19.573Z,15.47
2018-05-15T04:07:48.990Z,15.17
2018-05-15T04:10:16.492Z,14.67
2018-05-15T04:12:44.014Z,16.23
2018-05-15T04:15:12.306Z,18.90
2018-05-15T04:17:39.798Z,18.80
2018-05-15T04:20:08.080Z,17.90
2018-05-15T04:22:36.329Z,15.87
2018-05-15T04:25:03.814Z,16.03
2018-05-15T04:27:32.096Z,15.60
2018-05-15T04:29:59.587Z,15.30
2018-05-15T04:32:27.093Z,15.47
2018-05-15T04:34:54.632Z,15.70
2018-05-15T04:37:23.148Z,15.70
2018-05-15T04:39:51.406Z,15.03
2018-05-15T04:42:18.931Z,15.20
2018-05-15T04:44:46.471Z,15.33
2018-05-15T04:47:13.969Z,14.90
2018-05-15T04:49:41.481Z,15.13
2018-05-15T04:52:08.970Z,15.07
2018-05-15T04:54:36.460Z,14.80
2018-05-15T04:57:04.737Z,15.23
2018-05-15T04:59:32.239Z,14.03
2018-05-15T05:01:59.867Z,13.80
2018-05-15T05:04:27.347Z,14.37
2018-05-15T05:06:54.843Z,14.10
2018-05-15T05:09:23.160Z,14.13
2018-05-15T05:11:51.536Z,14.10
2018-05-15T05:14:19.317Z,13.83
2018-05-15T05:16:47.565Z,14.43
2018-05-15T05:19:15.078Z,14.13
2018-05-15T05:21:42.569Z,14.77
2018-05-15T05:24:10.079Z,14.27
2018-05-15T05:26:37.585Z,19.70
2018-05-15T05:29:05.070Z,30.67
2018-05-15T05:31:33.588Z,16.23
2018-05-15T05:34:01.093Z,14.53
2018-05-15T05:36:28.581Z,13.70
2018-05-15T05:38:56.830Z,15.00
2018-05-15T05:41:24.355Z,14.30
2018-05-15T05:43:51.838Z,15.10
2018-05-15T05:46:19.371Z,14.53
2018-05-15T05:48:46.860Z,14.30
2018-05-15T05:51:14.357Z,14.37
2018-05-15T05:53:41.840Z,13.80
2018-05-15T05:56:09.383Z,14.33
2018-05-15T05:58:36.873Z,14.07
2018-05-15T06:01:04.360Z,14.03
2018-05-15T06:03:32.764Z,13.57
2018-05-15T06:06:00.278Z,13.17
2018-05-15T06:08:28.555Z,12.90
2018-05-15T06:10:56.095Z,13.57
2018-05-15T06:13:23.590Z,13.67
2018-05-15T06:15:51.140Z,12.37
2018-05-15T06:18:18.680Z,12.80
2018-05-15T06:20:46.196Z,12.50
2018-05-15T06:23:13.702Z,14.50
2018-05-15T06:25:41.287Z,13.37
2018-05-15T06:28:09.569Z,13.27
2018-05-15T06:30:37.056Z,11.90
2018-05-15T06:33:04.560Z,12.37
2018-05-15T06:35:32.826Z,11.70
2018-05-15T06:38:00.323Z,12.10
2018-05-15T06:40:27.842Z,11.97
2018-05-15T06:42:55.335Z,12.13
2018-05-15T06:45:22.841Z,12.00
2018-05-15T06:47:50.354Z,10.93
2018-05-15T06:50:17.843Z,12.10
2018-05-15T06:52:45.329Z,11.83
2018-05-15T06:55:13.093Z,11.17
2018-05-15T06:57:40.577Z,11.00
2018-05-15T07:00:08.917Z,11.47
2018-05-15T07:02:36.421Z,11.83
2018-05-15T07:05:03.906Z,11.57
2018-05-15T07:07:32.158Z,10.87
2018-05-15T07:10:00.453Z,10.50
2018-05-15T07:12:28.707Z,10.63
2018-05-15T07:14:56.207Z,10.40
2018-05-15T07:17:23.729Z,10.40
2018-05-15T07:19:51.225Z,10.50
2018-05-15T07:22:18.717Z,9.90
2018-05-15T07:24:46.229Z,10.90
2018-05-15T07:27:13.814Z,10.30
2018-05-15T07:29:41.254Z,10.07
2018-05-15T07:32:09.564Z,9.37
2018-05-15T07:34:37.078Z,9.87
2018-05-15T07:37:05.334Z,9.43
2018-05-15T07:39:32.842Z,9.63
2018-05-15T07:42:00.333Z,10.13
2018-05-15T07:44:27.849Z,10.20
2018-05-15T07:46:55.418Z,10.20
2018-05-15T07:49:22.905Z,9.50
2018-05-15T07:51:50.405Z,9.80
2018-05-15T07:54:18.674Z,8.90
2018-05-15T07:56:46.235Z,9.17
2018-05-15T07:59:13.720Z,9.47
2018-05-15T08:01:41.234Z,9.50
2018-05-15T08:04:08.757Z,12.27
2018-05-15T08:06:36.241Z,9.00
2018-05-15T08:09:03.758Z,9.17
2018-05-15T08:11:31.246Z,8.67
2018-05-15T08:13:58.726Z,9.30
2018-05-15T08:16:26.333Z,8.90
2018-05-15T08:18:53.741Z,9.10
2018-05-15T08:21:21.240Z,8.40
2018-05-15T08:23:49.901Z,8.50
2018-05-15T08:26:17.394Z,8.47
2018-05-15T08:28:44.897Z,8.87
2018-05-15T08:31:12.410Z,8.30
2018-05-15T08:33:39.964Z,8.17
2018-05-15T08:36:07.450Z,7.97
2018-05-15T08:38:34.958Z,8.00
2018-05-15T08:41:02.439Z,7.90
2018-05-15T08:43:30.712Z,8.60
2018-05-15T08:45:59.000Z,8.03
2018-05-15T08:48:26.507Z,8.37
2018-05-15T08:50:54.010Z,7.63
2018-05-15T08:53:21.514Z,7.93
2018-05-15T08:55:49.002Z,8.97
2018-05-15T08:58:16.490Z,8.33
2018-05-15T09:00:43.993Z,8.80
2018-05-15T09:03:11.477Z,9.23
2018-05-15T09:05:39.742Z,9.13
2018-05-15T09:08:07.247Z,9.00
2018-05-15T09:10:34.746Z,8.43
2018-05-15T09:13:02.245Z,7.97
2018-05-15T09:15:30.534Z,12.60
2018-05-15T09:17:58.062Z,8.30
2018-05-15T09:20:25.540Z,7.60
2018-05-15T09:22:53.812Z,8.43
2018-05-15T09:25:22.061Z,8.53
2018-05-15T09:27:49.549Z,8.30
2018-05-15T09:30:17.852Z,8.03
2018-05-15T09:32:45.333Z,7.90
2018-05-15T09:35:12.823Z,8.50
2018-05-15T09:37:40.326Z,8.10
2018-05-15T09:40:07.806Z,8.80
2018-05-15T09:42:35.294Z,8.47
2018-05-15T09:45:02.792Z,8.90
2018-05-15T09:47:30.283Z,8.80
2018-05-15T09:49:57.779Z,9.80
2018-05-15T09:52:25.303Z,12.37
2018-05-15T09:54:52.786Z,9.30
2018-05-15T09:57:20.282Z,8.20
2018-05-15T09:59:47.833Z,8.10
2018-05-15T10:02:16.078Z,8.50
2018-05-15T10:04:43.558Z,7.93
2018-05-15T10:07:11.819Z,7.80
2018-05-15T10:09:39.303Z,7.90
2018-05-15T10:12:07.545Z,7.80
2018-05-15T10:14:35.055Z,7.93
2018-05-15T10:17:02.544Z,9.23
2018-05-15T10:19:30.021Z,9.30
2018-05-15T10:21:57.531Z,9.03
2018-05-15T10:24:25.022Z,8.80
2018-05-15T10:26:52.510Z,8.10
2018-05-15T10:29:20.774Z,7.73
2018-05-15T10:31:48.261Z,7.03
2018-05-15T10:34:16.505Z,6.73
2018-05-15T10:36:44.016Z,6.80
2018-05-15T10:39:11.490Z,6.77
2018-05-15T10:41:38.977Z,6.50
2018-05-15T10:44:07.281Z,6.37
2018-05-15T10:46:35.537Z,6.60
2018-05-15T10:49:03.033Z,5.73
2018-05-15T10:51:30.536Z,5.53
2018-05-15T10:53:58.019Z,5.67
2018-05-15T10:56:25.501Z,6.30
2018-05-15T10:58:53.004Z,6.13
2018-05-15T11:01:20.500Z,6.67
2018-05-15T11:03:48.758Z,6.60
2018-05-15T11:06:16.284Z,6.30
2018-05-15T11:08:43.773Z,6.80
2018-05-15T11:11:11.255Z,6.60
2018-05-15T11:13:39.583Z,8.23
2018-05-15T11:16:07.057Z,8.07
2018-05-15T11:18:42.057Z,8.70
2018-05-15T11:21:21.409Z,7.70
2018-05-15T11:24:00.834Z,7.30
2018-05-15T11:26:28.328Z,7.43
2018-05-15T11:28:55.801Z,7.20
2018-05-15T11:31:23.310Z,6.97
2018-05-15T11:33:50.786Z,7.23
2018-05-15T11:36:18.271Z,7.40
2018-05-15T11:38:45.774Z,7.33
2018-05-15T11:41:13.253Z,7.60
2018-05-15T11:43:40.734Z,7.50
2018-05-15T11:46:08.230Z,7.40
2018-05-15T11:48:36.851Z,7.40
2018-05-15T11:51:04.674Z,6.90
2018-05-15T11:53:31.485Z,7.63
2018-05-15T11:55:59.008Z,6.60
2018-05-15T11:58:27.248Z,6.83
2018-05-15T12:00:56.082Z,8.00
2018-05-15T12:03:23.567Z,7.60
2018-05-15T12:05:51.082Z,7.13
2018-05-15T12:08:18.806Z,7.33
2018-05-15T12:10:47.240Z,8.20
2018-05-15T12:13:14.758Z,7.50
2018-05-15T12:15:43.033Z,7.90
2018-05-15T12:18:10.563Z,7.97
2018-05-15T12:20:38.058Z,8.20
2018-05-15T12:23:06.369Z,8.73
2018-05-15T12:25:33.857Z,8.70
2018-05-15T12:28:01.463Z,8.70
2018-05-15T12:30:28.918Z,9.00
2018-05-15T12:32:57.185Z,10.00
2018-05-15T12:35:25.471Z,8.20
2018-05-15T12:37:52.990Z,8.40
2018-05-15T12:40:20.531Z,8.40
2018-05-15T12:42:48.016Z,8.27
2018-05-15T12:45:15.522Z,8.33
2018-05-15T12:47:43.015Z,7.80
2018-05-15T12:50:10.494Z,8.43
2018-05-15T12:52:37.995Z,7.47
2018-05-15T12:55:06.278Z,7.53
2018-05-15T12:57:33.762Z,7.20
2018-05-15T13:00:01.279Z,6.60
2018-05-15T13:02:28.789Z,6.53
2018-05-15T13:04:56.287Z,6.90
2018-05-15T13:07:24.561Z,6.60
2018-05-15T13:09:52.809Z,6.03
2018-05-15T13:12:20.299Z,6.43
2018-05-15T13:14:48.592Z,7.13
2018-05-15T13:17:16.080Z,7.03
2018-05-15T13:19:43.566Z,6.50
2018-05-15T13:22:11.070Z,6.50
2018-05-15T13:24:38.585Z,7.10
2018-05-15T13:27:06.063Z,6.40
2018-05-15T13:29:34.358Z,7.40
2018-05-15T13:32:01.856Z,7.20
2018-05-15T13:34:29.753Z,7.13
2018-05-15T13:36:57.262Z,7.10
2018-05-15T13:39:24.753Z,7.40
2018-05-15T13:41:52.233Z,6.90
2018-05-15T13:44:19.742Z,6.70
2018-05-15T13:46:47.225Z,7.17
2018-05-15T13:49:14.714Z,7.37
2018-05-15T13:51:42.995Z,6.67
2018-05-15T13:54:10.501Z,7.40
2018-05-15T13:56:37.990Z,6.60
2018-05-15T13:59:05.492Z,6.37
2018-05-15T14:01:33.133Z,6.43
2018-05-15T14:04:01.385Z,6.20
2018-05-15T14:06:28.952Z,10.43
2018-05-15T14:08:56.449Z,6.47
2018-05-15T14:11:23.925Z,5.80
2018-05-15T14:13:51.430Z,6.90
2018-05-15T14:16:18.923Z,5.80
2018-05-15T14:18:46.415Z,6.10
2018-05-15T14:21:13.922Z,5.70
2018-05-15T14:23:42.208Z,4.67
2018-05-15T14:26:09.693Z,4.80
2018-05-15T14:28:37.221Z,4.63
2018-05-15T14:31:05.477Z,4.43
2018-05-15T14:33:32.953Z,4.97
2018-05-15T14:36:01.232Z,4.70
2018-05-15T14:38:28.712Z,4.70
2018-05-15T14:40:56.198Z,4.90
2018-05-15T14:43:25.347Z,5.13
2018-05-15T14:45:53.621Z,5.50
2018-05-15T14:48:21.103Z,5.70
2018-05-15T14:54:06.898Z,5.27
2018-05-15T14:56:34.397Z,8.17
2018-05-15T14:59:01.911Z,6.00
2018-05-15T15:01:29.393Z,10.93
2018-05-15T15:03:56.903Z,6.30
2018-05-15T15:06:25.153Z,5.10
2018-05-15T15:08:52.633Z,5.50
2018-05-15T15:11:20.302Z,5.37
2018-05-15T15:13:47.825Z,5.30
2018-05-15T15:16:15.326Z,5.70
2018-05-15T15:18:42.858Z,5.70
2018-05-15T15:21:10.380Z,7.27
2018-05-15T15:23:37.981Z,6.00
2018-05-15T15:26:06.206Z,5.20
2018-05-15T15:28:33.697Z,5.30
2018-05-15T15:31:01.955Z,5.67
2018-05-15T15:33:29.466Z,5.30
2018-05-15T15:35:56.956Z,5.50
2018-05-15T15:38:24.465Z,5.30
2018-05-15T15:40:52.004Z,5.30
2018-05-15T15:43:19.491Z,5.37
2018-05-15T15:45:47.053Z,5.40
2018-05-15T15:48:14.617Z,5.27
2018-05-15T15:50:42.719Z,5.37
2018-05-15T15:53:10.946Z,5.30
2018-05-15T15:55:38.455Z,7.00
2018-05-15T15:58:06.014Z,8.13
2018-05-15T16:00:33.518Z,5.70
2018-05-15T16:03:01.033Z,5.00
2018-05-15T16:05:28.793Z,5.30
2018-05-15T16:07:56.282Z,5.40
2018-05-15T16:10:24.031Z,5.30
2018-05-15T16:12:51.513Z,5.00
2018-05-15T16:15:19.015Z,5.37
2018-05-15T16:17:47.294Z,5.30
2018-05-15T16:20:15.600Z,5.20
2018-05-15T16:22:44.795Z,5.20
2018-05-15T16:25:13.088Z,5.50
2018-05-15T16:27:40.648Z,5.77
2018-05-15T16:30:08.178Z,7.20
2018-05-15T16:32:35.696Z,5.70
2018-05-15T16:35:03.186Z,5.27
2018-05-15T16:37:31.432Z,8.17
2018-05-15T16:39:59.156Z,5.33
2018-05-15T16:42:26.653Z,4.90
2018-05-15T16:44:54.330Z,5.43
2018-05-15T16:47:21.925Z,4.90
2018-05-15T16:49:49.340Z,4.57
2018-05-15T16:52:16.845Z,4.50
2018-05-15T16:54:44.347Z,4.87
2018-05-15T16:57:11.847Z,4.50
2018-05-15T16:59:39.333Z,4.43
2018-05-15T17:02:06.841Z,4.47
2018-05-15T17:04:34.328Z,4.60
2018-05-15T17:07:01.815Z,4.60
2018-05-15T17:09:29.319Z,4.07
2018-05-15T17:11:56.817Z,3.73
2018-05-15T17:14:24.300Z,4.37
2018-05-15T17:16:51.795Z,3.77
2018-05-15T17:19:20.054Z,4.10
2018-05-15T17:21:47.594Z,4.23
2018-05-15T17:24:15.107Z,4.20
2018-05-15T17:26:42.623Z,4.10
2018-05-15T17:29:10.162Z,5.50
2018-05-15T17:31:37.687Z,4.50
2018-05-15T17:34:05.194Z,11.47
2018-05-15T17:36:32.701Z,199.20
2018-05-15T17:39:00.224Z,388.67
2018-05-15T17:41:27.716Z,273.60
2018-05-15T17:43:55.972Z,19.27
2018-05-15T17:46:24.277Z,198.63
2018-05-15T17:48:52.037Z,282.80
2018-05-15T17:51:20.299Z,416.13
2018-05-15T17:53:48.049Z,134.23
2018-05-15T17:56:15.549Z,168.97
2018-05-15T17:58:43.050Z,47.70
2018-05-15T18:01:10.577Z,98.00
2018-05-15T18:03:38.064Z,55.00
2018-05-15T18:06:05.602Z,312.53
2018-05-15T18:08:33.180Z,261.13
2018-05-15T18:11:01.543Z,137.17
2018-05-15T18:13:29.043Z,20.47
2018-05-15T18:15:56.561Z,8.23
2018-05-15T18:18:24.041Z,7.70
2018-05-15T18:20:51.524Z,6.50
2018-05-15T18:23:19.019Z,6.10
2018-05-15T18:25:46.498Z,6.30
2018-05-15T18:28:14.301Z,6.47
2018-05-15T18:30:41.811Z,6.40
2018-05-15T18:33:09.380Z,6.53
2018-05-15T18:35:36.855Z,6.63
2018-05-15T18:38:04.422Z,6.67
2018-05-15T18:40:31.909Z,7.67
2018-05-15T18:43:00.163Z,6.80
2018-05-15T18:45:27.760Z,6.80
2018-05-15T18:47:56.008Z,7.03
2018-05-15T18:50:23.620Z,7.27
2018-05-15T18:52:51.117Z,7.27
2018-05-15T18:55:18.597Z,6.90
2018-05-15T18:57:46.888Z,7.43
2018-05-15T19:00:15.247Z,6.60
2018-05-15T19:02:42.796Z,7.60
2018-05-15T19:05:10.339Z,7.40
2018-05-15T19:07:37.838Z,6.80
2018-05-15T19:10:06.095Z,6.87
2018-05-15T19:12:33.626Z,7.50
2018-05-15T19:15:01.138Z,7.07
2018-05-15T19:17:29.478Z,12.83
2018-05-15T19:19:56.961Z,8.00
2018-05-15T19:22:25.272Z,7.50
2018-05-15T19:24:52.806Z,7.60
2018-05-15T19:27:20.319Z,7.53
2018-05-15T19:29:47.821Z,7.43
2018-05-15T19:32:16.843Z,7.70
2018-05-15T19:34:50.138Z,7.83
2018-05-15T19:37:17.618Z,7.90
2018-05-15T19:39:45.185Z,8.10
2018-05-15T19:42:13.397Z,7.70
2018-05-15T19:44:41.655Z,8.43
2018-05-15T19:47:09.192Z,12.10
2018-05-15T19:49:37.468Z,12.30
2018-05-15T19:52:05.046Z,9.17
2018-05-15T19:54:32.486Z,9.40
2018-05-15T19:57:00.030Z,8.57
2018-05-15T19:59:27.548Z,9.43
2018-05-15T20:01:55.935Z,9.57
2018-05-15T20:04:23.410Z,9.20
2018-05-15T20:06:50.902Z,9.47
2018-05-15T20:09:18.833Z,9.17
2018-05-15T20:11:46.328Z,9.10
2018-05-15T20:14:13.826Z,9.60
2018-05-15T20:16:42.074Z,10.03
2018-05-15T20:19:09.590Z,10.63
2018-05-15T20:21:37.093Z,10.00
2018-05-15T20:24:04.594Z,8.97
2018-05-15T20:26:32.874Z,9.23
2018-05-15T20:29:00.380Z,9.33
2018-05-15T20:31:27.878Z,8.93
2018-05-15T20:33:56.169Z,9.47
2018-05-15T20:36:23.652Z,10.03
2018-05-15T20:38:51.204Z,9.77
2018-05-15T20:41:18.705Z,10.10
2018-05-15T20:43:46.198Z,9.43
2018-05-15T20:46:14.449Z,9.80
2018-05-15T20:48:41.958Z,10.03
2018-05-15T20:51:09.434Z,9.90
2018-05-15T20:53:36.917Z,9.93
2018-05-15T20:56:04.429Z,9.30
2018-05-15T20:58:31.920Z,9.00
2018-05-15T21:00:59.402Z,9.43
2018-05-15T21:03:26.897Z,9.63
2018-05-15T21:05:54.394Z,9.43
2018-05-15T21:08:21.933Z,9.13
2018-05-15T21:10:49.473Z,9.43
2018-05-15T21:13:16.963Z,8.93
2018-05-15T21:15:44.441Z,9.87
2018-05-15T21:18:11.938Z,9.90
2018-05-15T21:20:39.428Z,9.17
2018-05-15T21:23:06.954Z,8.70
2018-05-15T21:25:34.462Z,8.73
2018-05-15T21:28:01.937Z,8.60
2018-05-15T21:30:29.421Z,8.87
2018-05-15T21:32:57.689Z,8.77
2018-05-15T21:35:25.964Z,9.10
2018-05-15T21:37:54.218Z,8.70
2018-05-15T21:40:21.732Z,8.70
2018-05-15T21:42:49.353Z,8.60
2018-05-15T21:45:16.858Z,8.93
2018-05-15T21:47:44.356Z,9.10
2018-05-15T21:50:11.838Z,9.10
2018-05-15T21:52:40.131Z,9.00
2018-05-15T21:55:07.598Z,8.60
2018-05-15T21:57:35.098Z,9.40
2018-05-15T22:00:02.590Z,9.57
2018-05-15T22:02:30.902Z,9.27
2018-05-15T22:04:58.389Z,9.23
2018-05-15T22:07:25.866Z,9.40
2018-05-15T22:09:53.374Z,9.70
2018-05-15T22:12:32.659Z,9.90
2018-05-15T22:15:12.122Z,9.43
2018-05-15T22:17:52.275Z,10.43
2018-05-15T22:20:32.434Z,10.03
2018-05-15T22:23:00.173Z,10.23
2018-05-15T22:25:27.655Z,9.37
2018-05-15T22:27:55.917Z,9.90
2018-05-15T22:30:24.178Z,9.77
2018-05-15T22:32:51.665Z,9.70
2018-05-15T22:35:19.928Z,10.17
2018-05-15T22:37:48.225Z,9.83
2018-05-15T22:40:15.710Z,10.30
2018-05-15T22:42:43.221Z,9.73
2018-05-15T22:45:10.744Z,10.00
2018-05-15T22:47:38.235Z,10.60
2018-05-15T22:50:05.761Z,9.83
2018-05-15T22:52:33.246Z,10.57
2018-05-15T22:55:00.746Z,10.90
2018-05-15T22:57:28.267Z,11.47
2018-05-15T22:59:55.765Z,11.43
2018-05-15T23:02:23.662Z,11.80
2018-05-15T23:04:51.182Z,11.57
2018-05-15T23:07:18.684Z,11.73
2018-05-15T23:09:46.179Z,11.90
2018-05-15T23:12:14.455Z,11.87
2018-05-15T23:14:42.714Z,11.40
2018-05-15T23:17:10.197Z,12.23
2018-05-15T23:19:38.469Z,11.47
2018-05-15T23:22:06.727Z,13.17
2018-05-15T23:24:34.227Z,12.17
2018-05-15T23:27:01.784Z,11.70
2018-05-15T23:29:29.301Z,12.53
2018-05-15T23:31:56.769Z,12.70
2018-05-15T23:34:25.059Z,12.73
2018-05-15T23:36:53.305Z,13.17
2018-05-15T23:39:20.803Z,12.73
2018-05-15T23:41:49.074Z,12.93
2018-05-15T23:44:17.332Z,13.47
2018-05-15T23:46:44.814Z,13.57
2018-05-15T23:49:13.090Z,13.57
2018-05-15T23:51:41.355Z,13.77
2018-05-15T23:54:09.616Z,13.90
2018-05-15T23:56:37.150Z,13.50
2018-05-15T23:59:05.426Z,12.70
